createdAt,value
2023-02-07T00:01:38.962Z,18.92
2023-02-07T00:04:07.398Z,16.27
2023-02-07T00:06:36.774Z,17.75
2023-02-07T00:09:08.261Z,15.23
2023-02-07T00:11:40.503Z,20.23
2023-02-07T00:16:39.063Z,18.15
2023-02-07T00:19:07.652Z,19.05
2023-02-07T00:21:36.748Z,18.50
2023-02-07T00:24:05.795Z,22.45
2023-02-07T00:26:34.401Z,14.98
2023-02-07T00:29:03.119Z,18.55
2023-02-07T00:31:33.899Z,18.42
2023-02-07T00:34:05.359Z,23.15
2023-02-07T00:36:35.699Z,22.33
2023-02-07T00:39:07.668Z,19.35
2023-02-07T00:41:36.486Z,21.92
2023-02-07T00:44:05.345Z,24.20
2023-02-07T00:46:35.298Z,22.67
2023-02-07T00:49:05.375Z,23.20
2023-02-07T00:51:34.382Z,21.23
2023-02-07T00:54:03.427Z,23.33
2023-02-07T00:56:32.926Z,19.58
2023-02-07T00:59:01.557Z,24.25
2023-02-07T01:01:30.419Z,21.63
2023-02-07T01:03:58.946Z,21.75
2023-02-07T01:06:28.175Z,23.08
2023-02-07T01:08:58.161Z,19.90
2023-02-07T01:11:27.973Z,20.10
2023-02-07T01:13:59.521Z,22.00
2023-02-07T01:16:36.233Z,21.08
2023-02-07T01:19:07.517Z,25.17
2023-02-07T01:21:36.457Z,23.17
2023-02-07T01:24:06.704Z,24.88
2023-02-07T01:26:36.169Z,22.90
2023-02-07T01:29:05.558Z,21.40
2023-02-07T01:31:34.427Z,25.27
2023-02-07T01:34:05.394Z,23.55
2023-02-07T01:36:34.275Z,24.52
2023-02-07T01:39:03.958Z,23.52
2023-02-07T01:41:32.393Z,21.70
2023-02-07T01:44:22.635Z,23.38
2023-02-07T01:46:52.441Z,21.92
2023-02-07T01:49:25.134Z,21.60
2023-02-07T01:51:56.709Z,28.02
2023-02-07T01:54:31.877Z,28.60
2023-02-07T01:57:05.979Z,23.10
2023-02-07T01:59:38.669Z,25.15
2023-02-07T02:02:07.097Z,23.90
2023-02-07T02:04:35.629Z,26.08
2023-02-07T02:07:06.475Z,24.67
2023-02-07T02:09:36.287Z,23.38
2023-02-07T02:12:23.459Z,26.33
2023-02-07T02:15:10.945Z,24.45
2023-02-07T02:17:55.137Z,30.88
2023-02-07T02:20:26.433Z,25.77
2023-02-07T02:23:33.825Z,26.13
2023-02-07T02:26:15.799Z,24.92
2023-02-07T02:29:05.437Z,27.58
2023-02-07T02:31:46.141Z,27.60
2023-02-07T02:34:26.402Z,31.05
2023-02-07T02:37:17.855Z,32.42
2023-02-07T02:39:54.056Z,26.67
2023-02-07T02:42:33.255Z,32.08
2023-02-07T02:45:15.011Z,29.90
2023-02-07T02:47:48.149Z,28.10
2023-02-07T02:50:25.491Z,29.42
2023-02-07T02:52:54.056Z,27.05
2023-02-07T02:55:32.755Z,27.33
2023-02-07T02:58:15.379Z,30.98
2023-02-07T03:01:21.277Z,24.95
2023-02-07T03:03:56.236Z,31.70
2023-02-07T03:07:12.070Z,30.08
2023-02-07T03:09:52.929Z,30.65
2023-02-07T03:12:47.919Z,34.70
2023-02-07T03:15:32.584Z,33.92
2023-02-07T03:18:39.902Z,34.08
2023-02-07T03:21:19.972Z,33.13
2023-02-07T03:23:52.347Z,34.22
2023-02-07T03:26:23.272Z,34.90
2023-02-07T03:28:54.062Z,33.42
2023-02-07T03:31:25.156Z,30.95
2023-02-07T03:34:04.356Z,32.22
2023-02-07T03:36:40.031Z,34.58
2023-02-07T03:39:09.076Z,33.67
2023-02-07T03:42:11.891Z,35.38
2023-02-07T03:47:10.433Z,37.25
2023-02-07T03:49:38.812Z,42.47
2023-02-07T03:52:07.245Z,41.47
2023-02-07T03:54:35.803Z,42.97
2023-02-07T03:57:04.563Z,47.20
2023-02-07T03:59:33.010Z,43.13
2023-02-07T04:02:02.235Z,33.45
2023-02-07T04:04:30.800Z,32.47
2023-02-07T04:06:59.524Z,34.92
2023-02-07T04:09:28.014Z,32.45
2023-02-07T04:11:56.483Z,34.85
2023-02-07T04:14:25.082Z,38.83
2023-02-07T04:16:53.469Z,29.83
2023-02-07T04:19:22.059Z,28.35
2023-02-07T04:21:50.519Z,29.20
2023-02-07T04:24:19.270Z,29.50
2023-02-07T04:26:47.732Z,30.33
2023-02-07T04:29:16.557Z,32.38
2023-02-07T04:31:45.028Z,34.17
2023-02-07T04:34:13.448Z,28.98
2023-02-07T04:36:41.883Z,26.27
2023-02-07T04:39:10.268Z,28.42
2023-02-07T04:41:38.691Z,32.60
2023-02-07T04:44:07.173Z,33.40
2023-02-07T04:46:35.629Z,26.90
2023-02-07T04:49:04.354Z,27.75
2023-02-07T04:51:33.199Z,25.60
2023-02-07T04:54:01.676Z,29.15
2023-02-07T04:56:30.751Z,32.65
2023-02-07T04:58:59.250Z,26.83
2023-02-07T05:01:27.672Z,29.85
2023-02-07T05:03:56.235Z,28.08
2023-02-07T05:06:24.651Z,29.65
2023-02-07T05:08:53.151Z,25.52
2023-02-07T05:11:21.690Z,26.27
2023-02-07T05:13:50.140Z,28.58
2023-02-07T05:16:18.568Z,26.42
2023-02-07T05:18:46.996Z,29.52
2023-02-07T05:21:15.501Z,31.45
2023-02-07T05:23:43.923Z,25.58
2023-02-07T05:26:12.461Z,27.13
2023-02-07T05:28:40.810Z,32.13
2023-02-07T05:31:10.030Z,26.58
2023-02-07T05:33:38.891Z,27.70
2023-02-07T05:36:07.929Z,26.67
2023-02-07T05:38:36.457Z,27.83
2023-02-07T05:41:05.079Z,25.92
2023-02-07T05:43:33.545Z,32.58
2023-02-07T05:46:01.979Z,28.48
2023-02-07T05:48:30.414Z,29.55
2023-02-07T05:50:58.971Z,26.58
2023-02-07T05:53:27.499Z,30.58
2023-02-07T05:55:55.980Z,27.20
2023-02-07T05:58:25.545Z,29.83
2023-02-07T06:00:55.235Z,25.50
2023-02-07T06:03:23.763Z,27.75
2023-02-07T06:05:52.253Z,27.70
2023-02-07T06:08:20.733Z,26.60
2023-02-07T06:10:49.584Z,29.13
2023-02-07T06:13:18.061Z,30.05
2023-02-07T06:15:47.870Z,26.00
2023-02-07T06:18:16.652Z,29.55
2023-02-07T06:20:45.018Z,27.38
2023-02-07T06:23:13.485Z,29.48
2023-02-07T06:25:41.965Z,29.33
2023-02-07T06:28:10.569Z,28.25
2023-02-07T06:30:39.229Z,31.15
2023-02-07T06:33:07.592Z,27.08
2023-02-07T06:35:36.261Z,28.85
2023-02-07T06:38:04.797Z,25.90
2023-02-07T06:40:33.386Z,28.17
2023-02-07T06:43:01.792Z,25.13
2023-02-07T06:45:30.216Z,27.98
2023-02-07T06:47:58.624Z,27.95
2023-02-07T06:50:27.234Z,27.92
2023-02-07T06:52:55.697Z,27.73
2023-02-07T06:55:24.050Z,29.50
2023-02-07T06:57:52.453Z,27.45
2023-02-07T07:00:21.934Z,26.65
2023-02-07T07:02:50.785Z,29.33
2023-02-07T07:05:19.717Z,29.10
2023-02-07T07:07:49.034Z,25.38
2023-02-07T07:10:17.675Z,28.95
2023-02-07T07:12:47.299Z,24.83
2023-02-07T07:15:15.961Z,27.38
2023-02-07T07:17:44.394Z,30.38
2023-02-07T07:20:13.074Z,22.63
2023-02-07T07:22:41.633Z,23.63
2023-02-07T07:25:10.403Z,29.20
2023-02-07T07:27:38.924Z,26.33
2023-02-07T07:30:10.625Z,25.48
2023-02-07T07:32:39.329Z,28.98
2023-02-07T07:35:07.935Z,28.38
2023-02-07T07:37:36.406Z,22.52
2023-02-07T07:40:05.478Z,26.15
2023-02-07T07:42:35.433Z,23.17
2023-02-07T07:45:04.453Z,23.83
2023-02-07T07:47:32.962Z,23.77
2023-02-07T07:50:01.375Z,24.67
2023-02-07T07:52:29.839Z,23.48
2023-02-07T07:54:58.425Z,21.90
2023-02-07T07:57:28.255Z,23.27
2023-02-07T07:59:56.865Z,22.00
2023-02-07T08:02:25.323Z,25.02
2023-02-07T08:04:53.766Z,24.75
2023-02-07T08:07:22.153Z,23.25
2023-02-07T08:09:50.563Z,22.33
2023-02-07T08:12:19.105Z,27.02
2023-02-07T08:14:47.592Z,22.70
2023-02-07T08:17:16.066Z,23.73
2023-02-07T08:19:44.547Z,23.08
2023-02-07T08:22:14.562Z,24.02
2023-02-07T08:24:42.956Z,21.77
2023-02-07T08:27:12.818Z,25.55
2023-02-07T08:29:41.250Z,21.33
2023-02-07T08:32:09.804Z,18.95
2023-02-07T08:34:38.319Z,23.00
2023-02-07T08:37:08.505Z,21.17
2023-02-07T08:39:36.999Z,21.95
2023-02-07T08:42:08.197Z,21.75
2023-02-07T08:44:37.259Z,20.77
2023-02-07T08:47:05.735Z,22.98
2023-02-07T08:49:34.214Z,27.27
2023-02-07T08:52:02.699Z,25.10
2023-02-07T08:54:31.192Z,23.65
2023-02-07T08:56:59.616Z,21.17
2023-02-07T08:59:28.090Z,21.55
2023-02-07T09:01:56.503Z,20.90
2023-02-07T09:04:25.078Z,22.85
2023-02-07T09:06:53.609Z,22.90
2023-02-07T09:09:22.034Z,22.13
2023-02-07T09:11:50.715Z,20.42
2023-02-07T09:14:20.288Z,22.98
2023-02-07T09:16:48.792Z,20.90
2023-02-07T09:19:17.300Z,22.40
2023-02-07T09:21:45.823Z,22.77
2023-02-07T09:24:14.268Z,19.77
2023-02-07T09:26:42.612Z,22.58
2023-02-07T09:29:13.421Z,20.38
2023-02-07T09:31:42.735Z,23.90
2023-02-07T09:34:11.418Z,21.08
2023-02-07T09:36:39.838Z,20.15
2023-02-07T09:39:08.236Z,17.60
2023-02-07T09:41:43.556Z,20.02
2023-02-07T09:44:17.210Z,22.35
2023-02-07T09:46:58.267Z,20.55
2023-02-07T09:49:32.526Z,20.23
2023-02-07T09:52:03.934Z,16.98
2023-02-07T09:54:40.438Z,19.42
2023-02-07T09:57:44.122Z,17.05
2023-02-07T10:00:16.086Z,17.88
2023-02-07T10:03:15.112Z,16.77
2023-02-07T10:05:45.628Z,17.08
2023-02-07T10:08:16.709Z,13.70
2023-02-07T10:10:58.222Z,12.93
2023-02-07T10:14:04.100Z,15.17
2023-02-07T10:17:00.534Z,16.30
2023-02-07T10:19:42.405Z,14.90
2023-02-07T10:22:13.542Z,13.60
2023-02-07T10:25:14.005Z,12.43
2023-02-07T10:28:07.512Z,12.13
2023-02-07T10:30:39.920Z,10.43
2023-02-07T10:33:15.677Z,10.80
2023-02-07T10:35:45.858Z,10.30
2023-02-07T10:38:36.201Z,10.68
2023-02-07T10:41:13.860Z,10.27
2023-02-07T10:43:45.791Z,8.75
2023-02-07T10:46:20.465Z,10.82
2023-02-07T10:48:49.843Z,9.35
2023-02-07T10:51:42.609Z,6.78
2023-02-07T10:54:13.480Z,10.18
2023-02-07T10:56:51.138Z,10.63
2023-02-07T11:00:21.279Z,7.95
2023-02-07T11:02:52.229Z,8.85
2023-02-07T11:05:21.949Z,8.63
2023-02-07T11:07:58.940Z,7.40
2023-02-07T11:10:42.057Z,7.25
2023-02-07T11:13:14.608Z,8.32
2023-02-07T11:15:57.041Z,7.47
2023-02-07T11:18:31.192Z,8.73
2023-02-07T11:20:59.899Z,7.50
2023-02-07T11:23:28.445Z,8.68
2023-02-07T11:25:57.332Z,8.27
2023-02-07T11:28:31.020Z,8.80
2023-02-07T11:31:03.760Z,7.95
2023-02-07T11:33:35.120Z,8.13
2023-02-07T11:36:26.970Z,9.23
2023-02-07T11:38:58.531Z,7.07
2023-02-07T11:41:33.678Z,8.27
2023-02-07T11:44:14.366Z,5.82
2023-02-07T11:46:46.937Z,7.75
2023-02-07T11:49:43.142Z,8.15
2023-02-07T11:52:13.359Z,6.85
2023-02-07T11:54:47.803Z,6.90
2023-02-07T11:57:19.596Z,7.20
2023-02-07T11:59:58.545Z,7.85
2023-02-07T12:02:29.749Z,9.02
2023-02-07T12:05:15.094Z,8.18
2023-02-07T12:07:51.054Z,6.50
2023-02-07T12:10:35.698Z,5.82
2023-02-07T12:13:14.613Z,6.00
2023-02-07T12:15:52.845Z,5.72
2023-02-07T12:18:33.527Z,9.38
2023-02-07T12:21:24.743Z,6.20
2023-02-07T12:24:22.701Z,5.78
2023-02-07T12:27:00.127Z,6.60
2023-02-07T12:29:43.213Z,7.78
2023-02-07T12:32:33.490Z,6.93
2023-02-07T12:35:15.918Z,7.20
2023-02-07T12:38:16.676Z,7.15
2023-02-07T12:40:54.278Z,5.97
2023-02-07T12:43:28.930Z,6.20
2023-02-07T12:46:00.632Z,5.88
2023-02-07T12:48:47.501Z,7.53
2023-02-07T12:51:42.464Z,8.05
2023-02-07T12:54:29.991Z,6.53
2023-02-07T12:57:08.265Z,8.38
2023-02-07T12:59:42.980Z,5.82
2023-02-07T13:02:30.604Z,8.30
2023-02-07T13:05:29.587Z,6.70
2023-02-07T13:08:15.713Z,8.15
2023-02-07T13:11:03.161Z,4.80
2023-02-07T13:13:41.510Z,6.53
2023-02-07T13:16:58.148Z,5.85
2023-02-07T13:20:11.496Z,7.03
2023-02-07T13:22:53.348Z,4.70
2023-02-07T13:25:37.059Z,6.90
2023-02-07T13:28:13.491Z,5.32
2023-02-07T13:30:42.272Z,6.80
2023-02-07T13:33:27.757Z,7.38
2023-02-07T13:36:02.266Z,7.00
2023-02-07T13:39:09.188Z,6.10
2023-02-07T13:42:07.775Z,9.48
2023-02-07T13:44:55.228Z,5.95
2023-02-07T13:48:37.628Z,5.38
2023-02-07T13:51:28.934Z,4.70
2023-02-07T13:54:12.531Z,7.38
2023-02-07T13:57:17.533Z,7.00
2023-02-07T14:00:16.229Z,6.75
2023-02-07T14:02:52.298Z,5.55
2023-02-07T14:05:35.720Z,6.50
2023-02-07T14:08:22.112Z,6.15
2023-02-07T14:10:51.525Z,8.70
2023-02-07T14:13:26.151Z,6.45
2023-02-07T14:15:58.937Z,6.78
2023-02-07T14:18:31.262Z,7.05
2023-02-07T14:23:49.025Z,7.00
2023-02-07T14:26:44.843Z,6.18
2023-02-07T14:29:27.001Z,7.15
2023-02-07T14:32:21.618Z,9.55
2023-02-07T14:35:25.345Z,7.55
2023-02-07T14:38:01.131Z,5.05
2023-02-07T14:40:44.500Z,6.50
2023-02-07T14:43:12.871Z,5.70
2023-02-07T14:46:16.297Z,7.55
2023-02-07T14:48:47.594Z,6.80
2023-02-07T14:51:24.812Z,8.70
2023-02-07T14:54:27.520Z,9.10
2023-02-07T14:59:47.465Z,6.18
2023-02-07T15:02:28.072Z,6.90
2023-02-07T15:04:57.156Z,7.80
2023-02-07T15:07:25.627Z,7.50
2023-02-07T15:09:54.083Z,8.60
2023-02-07T15:12:27.736Z,7.55
2023-02-07T15:14:57.157Z,8.30
2023-02-07T15:17:33.429Z,12.60
2023-02-07T15:20:05.152Z,10.40
2023-02-07T15:22:33.661Z,9.13
2023-02-07T15:25:02.171Z,10.02
2023-02-07T15:27:30.699Z,19.15
2023-02-07T15:30:05.419Z,26.45
2023-02-07T15:32:42.256Z,9.13
2023-02-07T15:35:18.732Z,11.20
2023-02-07T15:37:48.856Z,23.38
2023-02-07T15:40:21.200Z,20.70
2023-02-07T15:42:57.450Z,8.77
2023-02-07T15:45:31.384Z,8.88
2023-02-07T15:48:14.780Z,9.65
2023-02-07T15:50:43.239Z,9.38
2023-02-07T15:53:23.833Z,11.27
2023-02-07T15:55:53.213Z,11.50
2023-02-07T15:58:34.851Z,8.50
2023-02-07T16:01:16.135Z,8.77
2023-02-07T16:03:46.313Z,11.30
2023-02-07T16:06:30.362Z,9.15
2023-02-07T16:09:01.635Z,10.32
2023-02-07T16:11:30.424Z,8.57
2023-02-07T16:14:17.682Z,8.65
2023-02-07T16:16:54.910Z,12.65
2023-02-07T16:19:28.037Z,9.73
2023-02-07T16:22:11.408Z,15.45
2023-02-07T16:24:43.329Z,21.90
2023-02-07T16:27:19.040Z,8.82
2023-02-07T16:29:48.098Z,11.88
2023-02-07T16:32:16.963Z,16.45
2023-02-07T16:34:59.008Z,11.32
2023-02-07T16:37:29.075Z,11.02
2023-02-07T16:39:57.637Z,10.80
2023-02-07T16:42:26.134Z,9.65
2023-02-07T16:44:54.539Z,8.15
2023-02-07T16:47:23.743Z,9.93
2023-02-07T16:49:52.341Z,8.40
2023-02-07T16:52:20.889Z,10.10
2023-02-07T16:54:49.463Z,9.45
2023-02-07T16:57:18.001Z,16.05
2023-02-07T16:59:46.433Z,16.67
2023-02-07T17:02:16.299Z,14.00
2023-02-07T17:04:44.845Z,15.40
2023-02-07T17:07:13.284Z,27.48
2023-02-07T17:09:42.908Z,40.38
2023-02-07T17:12:14.409Z,21.58
2023-02-07T17:14:42.841Z,17.92
2023-02-07T17:17:12.499Z,17.92
2023-02-07T17:19:41.124Z,13.73
2023-02-07T17:22:09.582Z,10.48
2023-02-07T17:24:37.988Z,16.92
2023-02-07T17:27:06.626Z,37.28
2023-02-07T17:29:35.011Z,21.92
2023-02-07T17:32:03.488Z,18.08
2023-02-07T17:34:32.109Z,36.13
2023-02-07T17:37:00.626Z,44.95
2023-02-07T17:39:29.068Z,31.63
2023-02-07T17:41:57.472Z,25.05
2023-02-07T17:44:28.177Z,71.35
2023-02-07T17:46:56.920Z,19.42
2023-02-07T17:49:25.437Z,23.20
2023-02-07T17:51:53.814Z,86.07
2023-02-07T17:54:22.206Z,31.98
2023-02-07T17:56:50.615Z,13.43
2023-02-07T17:59:24.500Z,24.15
2023-02-07T18:01:52.995Z,32.28
2023-02-07T18:04:22.164Z,17.02
2023-02-07T18:06:50.752Z,14.77
2023-02-07T18:09:20.101Z,12.93
2023-02-07T18:11:49.343Z,13.70
2023-02-07T18:14:17.934Z,17.02
2023-02-07T18:16:46.664Z,13.27
2023-02-07T18:19:17.286Z,15.32
2023-02-07T18:21:45.710Z,19.30
2023-02-07T18:24:14.252Z,13.73
2023-02-07T18:26:43.090Z,17.20
2023-02-07T18:29:11.537Z,20.58
2023-02-07T18:31:40.119Z,16.50
2023-02-07T18:34:09.796Z,14.10
2023-02-07T18:36:40.422Z,17.80
2023-02-07T18:39:10.570Z,16.60
2023-02-07T18:41:39.173Z,20.83
2023-02-07T18:44:07.973Z,21.00
2023-02-07T18:46:37.360Z,14.70
2023-02-07T18:49:06.145Z,15.77
2023-02-07T18:51:34.851Z,16.90
2023-02-07T18:54:03.286Z,15.60
2023-02-07T18:56:35.283Z,19.95
2023-02-07T18:59:05.098Z,27.15
2023-02-07T19:01:35.276Z,12.07
2023-02-07T19:04:03.941Z,18.35
2023-02-07T19:06:33.663Z,19.63
2023-02-07T19:09:03.347Z,15.98
2023-02-07T19:11:32.180Z,14.43
2023-02-07T19:14:00.800Z,15.80
2023-02-07T19:16:29.505Z,11.93
2023-02-07T19:18:59.016Z,18.05
2023-02-07T19:21:27.526Z,11.65
2023-02-07T19:23:57.724Z,13.02
2023-02-07T19:26:26.449Z,12.82
2023-02-07T19:28:54.911Z,12.80
2023-02-07T19:31:24.635Z,12.52
2023-02-07T19:33:54.192Z,13.18
2023-02-07T19:36:24.343Z,13.30
2023-02-07T19:38:54.314Z,13.38
2023-02-07T19:41:24.906Z,13.13
2023-02-07T19:43:53.840Z,12.45
2023-02-07T19:46:22.881Z,16.17
2023-02-07T19:48:51.804Z,12.85
2023-02-07T19:51:27.291Z,13.93
2023-02-07T19:53:56.657Z,14.55
2023-02-07T19:56:27.264Z,14.55
2023-02-07T19:58:56.323Z,13.82
2023-02-07T20:01:26.243Z,13.55
2023-02-07T20:03:55.702Z,13.98
2023-02-07T20:06:29.170Z,17.33
2023-02-07T20:08:59.817Z,18.27
2023-02-07T20:11:28.986Z,18.05
2023-02-07T20:14:02.749Z,18.55
2023-02-07T20:16:34.334Z,16.70
2023-02-07T20:19:05.674Z,21.50
2023-02-07T20:21:35.814Z,25.70
2023-02-07T20:24:05.197Z,23.60
2023-02-07T20:26:46.493Z,45.90
2023-02-07T20:29:17.714Z,18.88
2023-02-07T20:31:47.668Z,23.95
2023-02-07T20:34:16.486Z,34.10
2023-02-07T20:36:44.994Z,20.17
2023-02-07T20:39:15.764Z,18.90
2023-02-07T20:41:46.108Z,21.15
2023-02-07T20:44:20.407Z,17.50
2023-02-07T20:46:50.662Z,20.15
2023-02-07T20:49:27.176Z,28.00
2023-02-07T20:51:57.287Z,17.98
2023-02-07T20:54:27.731Z,14.32
2023-02-07T20:56:56.697Z,44.17
2023-02-07T20:59:32.659Z,22.08
2023-02-07T21:02:01.637Z,20.98
2023-02-07T21:04:30.469Z,17.13
2023-02-07T21:06:58.901Z,18.20
2023-02-07T21:09:28.337Z,14.70
2023-02-07T21:11:57.920Z,15.50
2023-02-07T21:14:30.145Z,15.23
2023-02-07T21:19:29.982Z,13.68
2023-02-07T21:21:58.504Z,15.65
2023-02-07T21:24:27.072Z,16.13
2023-02-07T21:26:56.763Z,16.25
2023-02-07T21:29:26.203Z,14.07
2023-02-07T21:31:54.864Z,17.17
2023-02-07T21:34:25.283Z,15.82
2023-02-07T21:36:54.005Z,16.13
2023-02-07T21:39:24.297Z,13.13
2023-02-07T21:41:53.206Z,15.40
2023-02-07T21:44:22.148Z,15.07
2023-02-07T21:46:51.332Z,13.45
2023-02-07T21:49:20.894Z,14.70
2023-02-07T21:51:53.274Z,13.70
2023-02-07T21:56:51.056Z,16.27
2023-02-07T21:59:20.885Z,16.10
2023-02-07T22:01:49.902Z,13.55
2023-02-07T22:04:18.597Z,16.60
2023-02-07T22:06:49.109Z,15.52
2023-02-07T22:09:19.724Z,19.85
2023-02-07T22:11:48.264Z,16.63
2023-02-07T22:14:17.787Z,16.30
2023-02-07T22:16:49.596Z,16.73
2023-02-07T22:19:18.876Z,14.55
2023-02-07T22:21:50.520Z,16.88
2023-02-07T22:24:19.914Z,16.40
2023-02-07T22:26:48.533Z,14.75
2023-02-07T22:29:17.078Z,13.98
2023-02-07T22:31:45.587Z,12.88
2023-02-07T22:34:14.646Z,13.52
2023-02-07T22:36:44.678Z,13.20
2023-02-07T22:39:16.256Z,12.50
2023-02-07T22:41:44.846Z,14.48
2023-02-07T22:44:13.662Z,12.82
2023-02-07T22:46:43.428Z,13.05
2023-02-07T22:49:12.187Z,14.52
2023-02-07T22:51:40.634Z,13.38
2023-02-07T22:54:15.265Z,12.25
2023-02-07T22:56:45.154Z,14.27
2023-02-07T22:59:14.990Z,15.95
2023-02-07T23:01:44.624Z,14.65
2023-02-07T23:04:17.293Z,12.40
2023-02-07T23:06:47.028Z,14.32
2023-02-07T23:09:16.317Z,12.38
2023-02-07T23:11:44.830Z,14.77
2023-02-07T23:14:13.401Z,15.88
2023-02-07T23:16:43.031Z,13.90
2023-02-07T23:19:14.162Z,14.07
2023-02-07T23:21:43.380Z,13.60
2023-02-07T23:24:12.030Z,13.68
2023-02-07T23:26:40.952Z,13.55
2023-02-07T23:29:09.410Z,15.27
2023-02-07T23:31:37.873Z,12.32
2023-02-07T23:34:06.342Z,13.98
2023-02-07T23:36:35.842Z,15.48
2023-02-07T23:39:04.871Z,15.68
2023-02-07T23:41:33.339Z,13.20
2023-02-07T23:44:02.574Z,14.48
2023-02-07T23:46:32.648Z,13.13
2023-02-07T23:49:01.493Z,14.90
2023-02-07T23:51:29.936Z,14.77
2023-02-07T23:53:58.401Z,13.30
2023-02-07T23:56:27.419Z,13.95
2023-02-07T23:58:55.911Z,12.43
